Time;durP1;ratioP1;P1;durP2;ratioP2;P2;SDS_P1;SDS_P2;PMS_P1;PMS_P2;Temp;Humidity;BMP_temperature;BMP_pressure;BME280_temperature;BME280_humidity;BME280_pressure;Samples;Min_cycle;Max_cycle;Signal;HPM_P1;HPM_P2
2023/06/10 00:02:04;;;;;;;;;;;;;;;;;;5059069;28;19921;-60
2023/06/10 00:04:30;;;;;;;;;;;;;;;;;;5059195;28;19968;-60
2023/06/10 00:06:57;;;;;;;;;;;;;;;;;;5042531;28;20337;-60
2023/06/10 00:09:23;;;;;;;;;;;;;;;;;;5056824;28;19928;-60
2023/06/10 00:11:48;;;;;;;;;;;;;;;;;;5051667;28;19920;-60
2023/06/10 00:14:14;;;;;;;;;;;;;;;;;;5061847;28;19924;-60
2023/06/10 00:16:40;;;;;;;;;;;;;;;;;;5035304;28;19990;-59
2023/06/10 00:19:07;;;;;;;;;;;;;;;;;;5035268;28;19920;-60
2023/06/10 00:21:37;;;;;;;;;;;;;;;;;;5058970;28;19971;-59
2023/06/10 00:24:03;;;;;;;;;;;;;;;;;;5049705;28;20007;-59
2023/06/10 00:26:28;;;;;;;;;;;;;;;;;;5034719;28;20011;-60
2023/06/10 00:28:54;;;;;;;;;;;;;;;;;;5044579;28;19925;-60
2023/06/10 00:31:20;;;;;;;;;;;;;;;;;;5043087;28;19927;-60
2023/06/10 00:33:46;;;;;;;;;;;;;;;;;;5057876;28;19927;-60
2023/06/10 00:36:12;;;;;;;;;;;;;;;;;;5054120;28;20046;-60
2023/06/10 00:38:40;;;;;;;;;;;;;;;;;;5052201;28;20385;-60
2023/06/10 00:41:06;;;;;;;;;;;;;;;;;;5062304;28;20019;-60
2023/06/10 00:43:32;;;;;;;;;;;;;;;;;;5057963;28;20129;-60
2023/06/10 00:45:57;;;;;;;;;;;;;;;;;;5032478;28;20447;-60
2023/06/10 00:48:24;;;;;;;;;;;;;;;;;;5065211;28;19924;-60
2023/06/10 00:50:50;;;;;;;;;;;;;;;;;;5070652;28;19935;-60
2023/06/10 00:53:16;;;;;;;;;;;;;;;;;;5057347;28;19920;-60
2023/06/10 00:55:42;;;;;;;;;;;;;;;;;;5048570;28;19927;-60
2023/06/10 00:58:08;;;;;;;;;;;;;;;;;;5047187;28;19934;-60
2023/06/10 01:00:34;;;;;;;;;;;;;;;;;;5041128;28;20051;-60
2023/06/10 01:03:00;;;;;;;;;;;;;;;;;;5046609;28;19921;-60
2023/06/10 01:05:26;;;;;;;;;;;;;;;;;;5038382;28;19921;-60
2023/06/10 01:07:53;;;;;;;;;;;;;;;;;;5040019;28;19935;-59
2023/06/10 01:10:19;;;;;;;;;;;;;;;;;;5055878;28;19966;-59
2023/06/10 01:12:48;;;;;;;;;;;;;;;;;;5058837;28;19966;-59
2023/06/10 01:15:14;;;;;;;;;;;;;;;;;;5059434;28;19927;-59
2023/06/10 01:17:41;;;;;;;;;;;;;;;;;;5054470;28;19924;-59
2023/06/10 01:20:11;;;;;;;;;;;;;;;;;;5052946;28;19936;-59
2023/06/10 01:22:37;;;;;;;;;;;;;;;;;;5054655;28;20059;-59
2023/06/10 01:25:03;;;;;;;;;;;;;;;;;;5058740;28;19936;-59
2023/06/10 01:27:29;;;;;;;;;;;;;;;;;;5056846;28;19925;-59
2023/06/10 01:29:55;;;;;;;;;;;;;;;;;;5045079;28;19928;-59
2023/06/10 01:32:21;;;;;;;;;;;;;;;;;;5054130;28;20289;-59
2023/06/10 01:34:47;;;;;;;;;;;;;;;;;;5049122;28;19929;-59
2023/06/10 01:37:13;;;;;;;;;;;;;;;;;;5056490;28;19920;-59
2023/06/10 01:39:39;;;;;;;;;;;;;;;;;;5053543;28;20446;-60
2023/06/10 01:42:06;;;;;;;;;;;;;;;;;;5041380;28;19924;-60
2023/06/10 01:44:32;;;;;;;;;;;;;;;;;;5067386;28;19920;-60
2023/06/10 01:46:58;;;;;;;;;;;;;;;;;;5065119;28;19936;-60
2023/06/10 01:49:24;;;;;;;;;;;;;;;;;;5065290;28;19924;-61
2023/06/10 01:51:50;;;;;;;;;;;;;;;;;;5058843;28;19929;-60
2023/06/10 01:54:16;;;;;;;;;;;;;;;;;;5051246;28;19921;-60
2023/06/10 01:56:42;;;;;;;;;;;;;;;;;;5026903;28;19952;-60
2023/06/10 01:59:08;;;;;;;;;;;;;;;;;;5048470;28;20362;-60
2023/06/10 02:01:34;;;;;;;;;;;;;;;;;;5066871;28;19920;-60
2023/06/10 02:04:00;;;;;;;;;;;;;;;;;;5066956;28;19920;-60
2023/06/10 02:06:26;;;;;;;;;;;;;;;;;;5038468;28;19936;-60
2023/06/10 02:08:51;;;;;;;;;;;;;;;;;;5053167;28;20311;-60
2023/06/10 02:11:18;;;;;;;;;;;;;;;;;;5043795;28;19928;-60
2023/06/10 02:13:43;;;;;;;;;;;;;;;;;;5046562;28;19921;-59
2023/06/10 02:16:12;;;;;;;;;;;;;;;;;;5065241;28;19935;-59
2023/06/10 02:18:40;;;;;;;;;;;;;;;;;;5053766;28;19936;-59
2023/06/10 02:21:06;;;;;;;;;;;;;;;;;;5065806;28;20271;-59
2023/06/10 02:23:32;;;;;;;;;;;;;;;;;;5063989;28;19928;-59
2023/06/10 02:25:58;;;;;;;;;;;;;;;;;;5051080;28;19937;-59
2023/06/10 02:28:24;;;;;;;;;;;;;;;;;;5040827;28;19929;-60
2023/06/10 02:30:50;;;;;;;;;;;;;;;;;;5051484;28;19921;-60
2023/06/10 02:33:17;;;;;;;;;;;;;;;;;;5066395;28;19921;-60
2023/06/10 02:35:43;;;;;;;;;;;;;;;;;;5072108;28;19938;-60
2023/06/10 02:38:09;;;;;;;;;;;;;;;;;;5060051;28;20007;-58
2023/06/10 02:40:35;;;;;;;;;;;;;;;;;;5054048;28;19921;-58
2023/06/10 02:43:01;;;;;;;;;;;;;;;;;;5053301;28;20667;-58
2023/06/10 02:45:27;;;;;;;;;;;;;;;;;;5068778;28;20965;-58
2023/06/10 02:47:53;;;;;;;;;;;;;;;;;;5062775;28;19925;-59
2023/06/10 02:50:19;;;;;;;;;;;;;;;;;;5064018;28;19931;-59
2023/06/10 02:52:45;;;;;;;;;;;;;;;;;;5018060;28;19950;-59
2023/06/10 02:55:10;;;;;;;;;;;;;;;;;;5065017;28;19924;-59
2023/06/10 02:57:36;;;;;;;;;;;;;;;;;;5053925;28;19967;-59
2023/06/10 03:00:04;;;;;;;;;;;;;;;;;;5057537;28;19921;-59
2023/06/10 03:02:31;;;;;;;;;;;;;;;;;;5061615;28;19936;-59
2023/06/10 03:04:57;;;;;;;;;;;;;;;;;;5032913;28;20010;-59
2023/06/10 03:07:23;;;;;;;;;;;;;;;;;;5069942;28;20381;-59
2023/06/10 03:09:49;;;;;;;;;;;;;;;;;;5053711;28;19921;-59
2023/06/10 03:12:15;;;;;;;;;;;;;;;;;;5043271;28;19931;-59
2023/06/10 03:14:41;;;;;;;;;;;;;;;;;;5049914;28;19928;-59
2023/06/10 03:17:08;;;;;;;;;;;;;;;;;;5053552;28;19949;-59
2023/06/10 03:19:34;;;;;;;;;;;;;;;;;;5063627;28;19924;-59
2023/06/10 03:22:00;;;;;;;;;;;;;;;;;;5049935;28;19936;-59
2023/06/10 03:24:26;;;;;;;;;;;;;;;;;;5051823;28;20294;-59
2023/06/10 03:26:51;;;;;;;;;;;;;;;;;;5056519;28;19936;-59
2023/06/10 03:29:17;;;;;;;;;;;;;;;;;;5064741;28;19928;-59
2023/06/10 03:31:43;;;;;;;;;;;;;;;;;;5023789;28;20378;-59
2023/06/10 03:34:09;;;;;;;;;;;;;;;;;;5052801;28;19974;-59
2023/06/10 03:36:37;;;;;;;;;;;;;;;;;;5040010;28;20290;-60
2023/06/10 03:39:03;;;;;;;;;;;;;;;;;;5056871;28;20032;-59
2023/06/10 03:41:29;;;;;;;;;;;;;;;;;;5033216;28;20016;-59
2023/06/10 03:43:55;;;;;;;;;;;;;;;;;;5050707;28;20514;-60
2023/06/10 03:46:21;;;;;;;;;;;;;;;;;;5060715;28;19927;-60
2023/06/10 03:48:48;;;;;;;;;;;;;;;;;;5040639;28;19921;-60
2023/06/10 03:51:14;;;;;;;;;;;;;;;;;;5053353;28;19932;-60
2023/06/10 03:53:40;;;;;;;;;;;;;;;;;;5066410;28;20368;-60
2023/06/10 03:56:06;;;;;;;;;;;;;;;;;;5064152;28;19959;-60
2023/06/10 03:58:32;;;;;;;;;;;;;;;;;;5059512;28;20066;-60
2023/06/10 04:00:59;;;;;;;;;;;;;;;;;;5062371;28;19924;-60
2023/06/10 04:03:26;;;;;;;;;;;;;;;;;;5061952;28;19925;-60
2023/06/10 04:05:51;;;;;;;;;;;;;;;;;;5051486;28;19921;-60
2023/06/10 04:08:17;;;;;;;;;;;;;;;;;;5033599;28;19936;-60
2023/06/10 04:10:43;;;;;;;;;;;;;;;;;;5035959;28;19932;-60
2023/06/10 04:13:10;;;;;;;;;;;;;;;;;;5025193;28;20424;-60
2023/06/10 04:15:36;;;;;;;;;;;;;;;;;;5052497;28;20008;-60
2023/06/10 04:18:02;;;;;;;;;;;;;;;;;;5051421;28;19970;-60
2023/06/10 04:20:28;;;;;;;;;;;;;;;;;;5051522;28;20370;-60
2023/06/10 04:22:54;;;;;;;;;;;;;;;;;;5016561;28;20389;-60
2023/06/10 04:25:20;;;;;;;;;;;;;;;;;;5033444;28;20003;-60
2023/06/10 04:27:46;;;;;;;;;;;;;;;;;;5052440;28;19929;-60
2023/06/10 04:30:11;;;;;;;;;;;;;;;;;;5052413;28;19927;-60
2023/06/10 04:32:37;;;;;;;;;;;;;;;;;;5053020;28;19932;-60
2023/06/10 04:35:03;;;;;;;;;;;;;;;;;;5063817;28;19925;-60
2023/06/10 04:37:29;;;;;;;;;;;;;;;;;;5059481;28;19924;-60
2023/06/10 04:39:55;;;;;;;;;;;;;;;;;;5053357;28;19939;-60
2023/06/10 04:42:21;;;;;;;;;;;;;;;;;;5049429;28;20007;-60
2023/06/10 04:44:47;;;;;;;;;;;;;;;;;;5057221;28;20568;-59
2023/06/10 04:47:13;;;;;;;;;;;;;;;;;;5043926;28;19954;-60
2023/06/10 04:49:39;;;;;;;;;;;;;;;;;;5057198;28;19944;-60
2023/06/10 04:52:05;;;;;;;;;;;;;;;;;;5056262;28;19997;-60
2023/06/10 04:54:32;;;;;;;;;;;;;;;;;;5056990;28;20672;-59
2023/06/10 04:56:58;;;;;;;;;;;;;;;;;;5065990;28;19931;-59
2023/06/10 04:59:24;;;;;;;;;;;;;;;;;;5051316;28;19921;-59
2023/06/10 05:01:50;;;;;;;;;;;;;;;;;;5045647;28;19959;-58
2023/06/10 05:04:15;;;;;;;;;;;;;;;;;;5057128;28;19938;-58
2023/06/10 05:06:41;;;;;;;;;;;;;;;;;;5040643;28;19924;-58
2023/06/10 05:09:07;;;;;;;;;;;;;;;;;;5041624;28;20386;-59
2023/06/10 05:11:33;;;;;;;;;;;;;;;;;;5056146;28;19932;-59
2023/06/10 05:13:59;;;;;;;;;;;;;;;;;;5047279;28;20393;-59
2023/06/10 05:16:25;;;;;;;;;;;;;;;;;;5027266;28;19966;-59
2023/06/10 05:18:51;;;;;;;;;;;;;;;;;;5057972;28;20011;-59
2023/06/10 05:21:17;;;;;;;;;;;;;;;;;;5059479;28;19929;-59
2023/06/10 05:23:43;;;;;;;;;;;;;;;;;;5063525;28;19920;-59
2023/06/10 05:26:10;;;;;;;;;;;;;;;;;;5035433;28;19926;-59
2023/06/10 05:28:36;;;;;;;;;;;;;;;;;;5060624;28;19928;-59
2023/06/10 05:31:02;;;;;;;;;;;;;;;;;;5026793;28;20442;-59
2023/06/10 05:33:28;;;;;;;;;;;;;;;;;;5060123;28;19924;-58
2023/06/10 05:35:54;;;;;;;;;;;;;;;;;;5071581;28;19930;-59
2023/06/10 05:38:20;;;;;;;;;;;;;;;;;;5058153;28;19920;-59
2023/06/10 05:40:46;;;;;;;;;;;;;;;;;;5051497;28;19928;-59
2023/06/10 05:43:12;;;;;;;;;;;;;;;;;;5065196;28;19924;-59
2023/06/10 05:45:40;;;;;;;;;;;;;;;;;;5055923;28;19928;-59
2023/06/10 05:48:06;;;;;;;;;;;;;;;;;;5066335;28;20032;-59
2023/06/10 05:50:37;;;;;;;;;;;;;;;;;;5042953;28;20058;-60
2023/06/10 05:53:03;;;;;;;;;;;;;;;;;;5060814;28;20385;-60
2023/06/10 05:55:29;;;;;;;;;;;;;;;;;;5065725;28;20012;-60
2023/06/10 05:57:55;;;;;;;;;;;;;;;;;;5037823;28;19931;-60
2023/06/10 06:00:21;;;;;;;;;;;;;;;;;;5049787;28;20382;-60
2023/06/10 06:02:47;;;;;;;;;;;;;;;;;;5055823;28;19928;-60
2023/06/10 06:05:13;;;;;;;;;;;;;;;;;;5060286;28;19990;-60
2023/06/10 06:07:39;;;;;;;;;;;;;;;;;;5053846;28;19972;-61
2023/06/10 06:10:05;;;;;;;;;;;;;;;;;;5050579;28;19925;-61
2023/06/10 06:12:31;;;;;;;;;;;;;;;;;;5061452;28;19925;-62
2023/06/10 06:14:56;;;;;;;;;;;;;;;;;;5055099;28;20356;-62
2023/06/10 06:17:22;;;;;;;;;;;;;;;;;;5044528;28;19947;-62
2023/06/10 06:19:49;;;;;;;;;;;;;;;;;;5058849;28;19976;-62
2023/06/10 06:22:15;;;;;;;;;;;;;;;;;;5054716;28;20400;-62
2023/06/10 06:24:41;;;;;;;;;;;;;;;;;;5038937;28;19971;-62
2023/06/10 06:27:06;;;;;;;;;;;;;;;;;;5056067;28;20827;-61
2023/06/10 06:29:32;;;;;;;;;;;;;;;;;;5060596;28;19974;-60
2023/06/10 06:31:58;;;;;;;;;;;;;;;;;;5058485;28;20292;-60
2023/06/10 06:34:24;;;;;;;;;;;;;;;;;;5059562;28;19921;-60
2023/06/10 06:36:50;;;;;;;;;;;;;;;;;;5057144;28;20593;-61
2023/06/10 06:39:16;;;;;;;;;;;;;;;;;;5037883;28;19928;-60
2023/06/10 06:41:42;;;;;;;;;;;;;;;;;;5051714;28;20019;-60
2023/06/10 06:44:08;;;;;;;;;;;;;;;;;;5026493;28;19929;-61
2023/06/10 06:46:34;;;;;;;;;;;;;;;;;;5056146;28;19979;-60
2023/06/10 06:49:00;;;;;;;;;;;;;;;;;;5061322;28;20263;-61
2023/06/10 06:51:26;;;;;;;;;;;;;;;;;;5061830;28;19978;-61
2023/06/10 06:53:54;;;;;;;;;;;;;;;;;;5065547;28;19933;-60
2023/06/10 06:56:21;;;;;;;;;;;;;;;;;;5048391;28;20016;-60
2023/06/10 06:58:47;;;;;;;;;;;;;;;;;;5049999;28;19940;-60
2023/06/10 07:01:12;;;;;;;;;;;;;;;;;;5026423;28;20392;-60
2023/06/10 07:03:38;;;;;;;;;;;;;;;;;;5063525;28;19928;-60
2023/06/10 07:06:04;;;;;;;;;;;;;;;;;;5056199;28;19978;-60
2023/06/10 07:08:30;;;;;;;;;;;;;;;;;;5066343;28;19978;-60
2023/06/10 07:10:56;;;;;;;;;;;;;;;;;;5064250;28;19921;-60
2023/06/10 07:13:22;;;;;;;;;;;;;;;;;;5050097;28;19924;-60
2023/06/10 07:15:49;;;;;;;;;;;;;;;;;;5057477;28;19959;-60
2023/06/10 07:18:15;;;;;;;;;;;;;;;;;;5058934;28;19921;-60
2023/06/10 07:20:41;;;;;;;;;;;;;;;;;;5046212;28;19931;-60
2023/06/10 07:23:07;;;;;;;;;;;;;;;;;;5032661;28;19921;-60
2023/06/10 07:25:33;;;;;;;;;;;;;;;;;;5029305;28;20327;-60
2023/06/10 07:27:59;;;;;;;;;;;;;;;;;;5033499;28;19925;-60
2023/06/10 07:30:25;;;;;;;;;;;;;;;;;;5036542;28;19950;-60
2023/06/10 07:32:51;;;;;;;;;;;;;;;;;;5048472;28;19921;-60
2023/06/10 07:35:17;;;;;;;;;;;;;;;;;;5053198;28;19932;-59
2023/06/10 07:37:43;;;;;;;;;;;;;;;;;;5049504;28;19925;-59
2023/06/10 07:40:08;;;;;;;;;;;;;;;;;;5063878;28;19988;-60
2023/06/10 07:42:34;;;;;;;;;;;;;;;;;;5071008;28;19925;-60
2023/06/10 07:45:00;;;;;;;;;;;;;;;;;;5062539;28;19933;-59
2023/06/10 07:47:26;;;;;;;;;;;;;;;;;;5053019;28;19928;-60
2023/06/10 07:49:52;;;;;;;;;;;;;;;;;;5034661;28;20278;-60
2023/06/10 07:52:18;;;;;;;;;;;;;;;;;;5049369;28;19929;-59
2023/06/10 07:54:44;;;;;;;;;;;;;;;;;;5044612;28;19921;-59
2023/06/10 07:57:10;;;;;;;;;;;;;;;;;;5033091;28;20378;-59
2023/06/10 07:59:36;;;;;;;;;;;;;;;;;;5032803;28;20023;-59
2023/06/10 08:02:01;;;;;;;;;;;;;;;;;;5047230;28;20278;-60
2023/06/10 08:04:27;;;;;;;;;;;;;;;;;;5052326;28;19948;-60
2023/06/10 08:06:53;;;;;;;;;;;;;;;;;;5052363;28;19932;-59
2023/06/10 08:09:21;;;;;;;;;;;;;;;;;;5027077;28;19928;-59
2023/06/10 08:11:47;;;;;;;;;;;;;;;;;;5052690;28;19951;-59
2023/06/10 08:14:13;;;;;;;;;;;;;;;;;;5013877;28;20016;-59
2023/06/10 08:16:39;;;;;;;;;;;;;;;;;;5014779;28;20012;-59
2023/06/10 08:19:05;;;;;;;;;;;;;;;;;;5014737;28;19943;-59
2023/06/10 08:21:32;;;;;;;;;;;;;;;;;;5035670;28;19936;-59
2023/06/10 08:23:58;;;;;;;;;;;;;;;;;;5023612;28;19955;-60
2023/06/10 08:26:24;;;;;;;;;;;;;;;;;;5066919;28;19974;-61
2023/06/10 08:28:50;;;;;;;;;;;;;;;;;;5056403;28;20377;-61
2023/06/10 08:31:16;;;;;;;;;;;;;;;;;;5052420;28;20011;-61
2023/06/10 08:33:42;;;;;;;;;;;;;;;;;;5038040;28;19921;-61
2023/06/10 08:36:08;;;;;;;;;;;;;;;;;;5032053;28;20431;-61
2023/06/10 08:38:34;;;;;;;;;;;;;;;;;;5049082;28;19928;-61
2023/06/10 08:41:02;;;;;;;;;;;;;;;;;;5051819;28;20012;-61
2023/06/10 08:43:28;;;;;;;;;;;;;;;;;;5061886;28;19931;-61
2023/06/10 08:45:54;;;;;;;;;;;;;;;;;;5019345;28;19924;-61
2023/06/10 08:48:20;;;;;;;;;;;;;;;;;;5047960;28;19936;-61
2023/06/10 08:50:47;;;;;;;;;;;;;;;;;;5039291;28;20000;-61
2023/06/10 08:53:13;;;;;;;;;;;;;;;;;;5029514;28;20278;-61
2023/06/10 08:55:39;;;;;;;;;;;;;;;;;;5019892;28;19925;-61
2023/06/10 08:58:05;;;;;;;;;;;;;;;;;;5051045;28;19964;-61
2023/06/10 09:00:31;;;;;;;;;;;;;;;;;;5032587;28;20366;-61
2023/06/10 09:02:57;;;;;;;;;;;;;;;;;;5051244;28;19951;-61
2023/06/10 09:05:22;;;;;;;;;;;;;;;;;;5050974;22;19960;-67
2023/06/10 09:07:48;;;;;;;;;;;;;;;;;;5003670;28;19980;-67
2023/06/10 09:10:14;;;;;;;;;;;;;;;;;;5027089;28;20007;-67
2023/06/10 09:12:40;;;;;;;;;;;;;;;;;;5029668;28;20019;-67
2023/06/10 09:15:06;;;;;;;;;;;;;;;;;;5003217;28;19953;-66
2023/06/10 09:17:32;;;;;;;;;;;;;;;;;;5027779;28;20918;-66
2023/06/10 09:19:58;;;;;;;;;;;;;;;;;;5021573;28;19925;-66
2023/06/10 09:22:26;;;;;;;;;;;;;;;;;;5028005;28;19971;-66
2023/06/10 09:24:52;;;;;;;;;;;;;;;;;;5030482;28;20483;-65
2023/06/10 09:27:18;;;;;;;;;;;;;;;;;;5011831;28;19925;-66
2023/06/10 09:29:43;;;;;;;;;;;;;;;;;;5028754;28;19921;-66
2023/06/10 09:32:09;;;;;;;;;;;;;;;;;;5031323;28;19979;-65
2023/06/10 09:34:35;;;;;;;;;;;;;;;;;;5027949;28;19925;-66
2023/06/10 09:37:01;;;;;;;;;;;;;;;;;;5011327;28;20413;-65
2023/06/10 09:39:27;;;;;;;;;;;;;;;;;;5030477;28;19921;-65
2023/06/10 09:41:53;;;;;;;;;;;;;;;;;;5025218;28;19925;-65
2023/06/10 09:44:19;;;;;;;;;;;;;;;;;;5023610;28;19936;-65
2023/06/10 09:46:45;;;;;;;;;;;;;;;;;;5027959;28;20003;-65
2023/06/10 09:49:11;;;;;;;;;;;;;;;;;;5005488;28;19982;-65
2023/06/10 09:51:37;;;;;;;;;;;;;;;;;;5024889;28;19921;-66
2023/06/10 09:54:03;;;;;;;;;;;;;;;;;;5030328;28;19959;-65
2023/06/10 09:56:29;;;;;;;;;;;;;;;;;;5013001;28;19921;-63
2023/06/10 09:58:54;;;;;;;;;;;;;;;;;;5030049;28;20015;-66
2023/06/10 10:01:20;;;;;;;;;;;;;;;;;;5028533;28;19921;-66
2023/06/10 10:03:46;;;;;;;;;;;;;;;;;;5029545;28;19925;-66
2023/06/10 10:06:12;;;;;;;;;;;;;;;;;;5020787;28;19951;-69
2023/06/10 10:08:38;;;;;;;;;;;;;;;;;;5032615;28;19924;-65
2023/06/10 10:11:04;;;;;;;;;;;;;;;;;;5025591;28;19983;-66
2023/06/10 10:13:30;;;;;;;;;;;;;;;;;;5021533;28;19925;-66
2023/06/10 10:15:56;;;;;;;;;;;;;;;;;;5028117;28;20454;-67
2023/06/10 10:18:25;;;;;;;;;;;;;;;;;;5021290;28;20008;-66
2023/06/10 10:20:55;;;;;;;;;;;;;;;;;;5026828;28;19970;-66
2023/06/10 10:23:20;;;;;;;;;;;;;;;;;;5029776;28;20274;-66
2023/06/10 10:25:48;;;;;;;;;;;;;;;;;;5008203;28;21464;-65
2023/06/10 10:28:14;;;;;;;;;;;;;;;;;;5011368;28;19925;-66
2023/06/10 10:30:40;;;;;;;;;;;;;;;;;;4997836;28;20359;-65
2023/06/10 10:33:08;;;;;;;;;;;;;;;;;;5006790;28;19940;-66
2023/06/10 10:35:34;;;;;;;;;;;;;;;;;;5029857;28;19967;-66
2023/06/10 10:38:00;;;;;;;;;;;;;;;;;;5029029;28;19924;-66
2023/06/10 10:40:26;;;;;;;;;;;;;;;;;;5028591;28;19943;-65
2023/06/10 10:42:52;;;;;;;;;;;;;;;;;;5028549;28;19925;-65
2023/06/10 10:45:18;;;;;;;;;;;;;;;;;;5030782;28;19983;-65
2023/06/10 10:47:44;;;;;;;;;;;;;;;;;;5015429;28;19930;-66
2023/06/10 10:50:09;;;;;;;;;;;;;;;;;;5028424;28;19925;-66
2023/06/10 10:52:35;;;;;;;;;;;;;;;;;;5050339;28;19921;-65
2023/06/10 10:55:01;;;;;;;;;;;;;;;;;;5038006;28;20016;-65
2023/06/10 10:57:27;;;;;;;;;;;;;;;;;;5025394;28;19925;-66
2023/06/10 10:59:55;;;;;;;;;;;;;;;;;;5032240;28;20298;-65
2023/06/10 11:02:21;;;;;;;;;;;;;;;;;;5027881;28;19929;-65
2023/06/10 11:04:47;;;;;;;;;;;;;;;;;;5024337;28;20458;-65
2023/06/10 11:07:15;;;;;;;;;;;;;;;;;;5028562;28;19963;-66
2023/06/10 11:09:41;;;;;;;;;;;;;;;;;;5030959;28;19991;-65
2023/06/10 11:12:07;;;;;;;;;;;;;;;;;;5013296;28;20380;-66
2023/06/10 11:14:34;;;;;;;;;;;;;;;;;;5028162;28;19967;-66
2023/06/10 11:17:00;;;;;;;;;;;;;;;;;;5028951;28;19940;-65
2023/06/10 11:19:26;;;;;;;;;;;;;;;;;;5005226;28;20282;-65
2023/06/10 11:21:52;;;;;;;;;;;;;;;;;;5032281;28;19960;-65
2023/06/10 11:24:18;;;;;;;;;;;;;;;;;;5031627;28;19932;-65
2023/06/10 11:26:44;;;;;;;;;;;;;;;;;;5029948;28;19994;-65
2023/06/10 11:29:10;;;;;;;;;;;;;;;;;;5035950;28;19929;-66
2023/06/10 11:31:35;;;;;;;;;;;;;;;;;;5028128;28;19921;-66
2023/06/10 11:34:03;;;;;;;;;;;;;;;;;;5031890;28;20024;-65
2023/06/10 11:36:28;;;;;;;;;;;;;;;;;;5027359;28;19925;-66
2023/06/10 11:38:54;;;;;;;;;;;;;;;;;;5029133;28;19929;-65
2023/06/10 11:41:20;;;;;;;;;;;;;;;;;;5029366;28;20290;-65
2023/06/10 11:43:46;;;;;;;;;;;;;;;;;;5029217;28;20023;-66
2023/06/10 11:46:12;;;;;;;;;;;;;;;;;;5027469;28;20011;-65
2023/06/10 11:48:38;;;;;;;;;;;;;;;;;;5010274;28;19929;-66
2023/06/10 11:51:04;;;;;;;;;;;;;;;;;;5028081;28;19932;-65
2023/06/10 11:53:30;;;;;;;;;;;;;;;;;;5032407;28;19932;-65
2023/06/10 11:55:56;;;;;;;;;;;;;;;;;;5030789;28;19921;-65
2023/06/10 11:58:22;;;;;;;;;;;;;;;;;;5030232;28;19926;-65
2023/06/10 12:00:48;;;;;;;;;;;;;;;;;;5009169;28;19932;-65
2023/06/10 12:03:14;;;;;;;;;;;;;;;;;;5024686;28;19925;-65
2023/06/10 12:05:40;;;;;;;;;;;;;;;;;;5030428;28;19983;-65
2023/06/10 12:08:06;;;;;;;;;;;;;;;;;;5030339;28;20252;-66
2023/06/10 12:10:31;;;;;;;;;;;;;;;;;;5027256;28;19925;-65
2023/06/10 12:12:58;;;;;;;;;;;;;;;;;;5028804;28;19925;-66
2023/06/10 12:15:25;;;;;;;;;;;;;;;;;;5022760;28;19921;-66
2023/06/10 12:17:51;;;;;;;;;;;;;;;;;;5027758;28;19925;-66
2023/06/10 12:20:17;;;;;;;;;;;;;;;;;;5013134;28;19926;-66
2023/06/10 12:22:43;;;;;;;;;;;;;;;;;;5026170;28;19943;-64
2023/06/10 12:25:09;;;;;;;;;;;;;;;;;;5012506;28;20558;-65
2023/06/10 12:27:35;;;;;;;;;;;;;;;;;;5012747;28;19925;-65
2023/06/10 12:30:02;;;;;;;;;;;;;;;;;;5023286;28;19983;-65
2023/06/10 12:32:28;;;;;;;;;;;;;;;;;;5010493;28;20311;-64
2023/06/10 12:34:54;;;;;;;;;;;;;;;;;;5031271;28;19928;-64
2023/06/10 12:37:20;;;;;;;;;;;;;;;;;;5013870;28;19921;-64
2023/06/10 12:39:46;;;;;;;;;;;;;;;;;;5029461;28;19947;-64
2023/06/10 12:42:12;;;;;;;;;;;;;;;;;;5011639;28;19929;-64
2023/06/10 12:44:37;;;;;;;;;;;;;;;;;;5010223;28;19990;-64
2023/06/10 12:47:03;;;;;;;;;;;;;;;;;;5031523;28;19926;-64
2023/06/10 12:49:29;;;;;;;;;;;;;;;;;;5031548;28;19972;-64
2023/06/10 12:51:55;;;;;;;;;;;;;;;;;;5030133;28;20247;-64
2023/06/10 12:54:21;;;;;;;;;;;;;;;;;;5029951;28;19932;-65
2023/06/10 12:56:47;;;;;;;;;;;;;;;;;;5022011;28;19922;-65
2023/06/10 12:59:14;;;;;;;;;;;;;;;;;;5021249;28;19925;-65
2023/06/10 13:01:40;;;;;;;;;;;;;;;;;;5031822;28;19925;-65
2023/06/10 13:04:07;;;;;;;;;;;;;;;;;;5031961;28;19921;-65
2023/06/10 13:06:36;;;;;;;;;;;;;;;;;;5031464;28;19932;-65
2023/06/10 13:09:02;;;;;;;;;;;;;;;;;;5031658;28;19929;-65
2023/06/10 13:11:28;;;;;;;;;;;;;;;;;;5029158;28;19925;-65
2023/06/10 13:13:54;;;;;;;;;;;;;;;;;;5031088;28;19921;-65
2023/06/10 13:16:20;;;;;;;;;;;;;;;;;;5031495;28;19921;-65
2023/06/10 13:18:46;;;;;;;;;;;;;;;;;;5031604;28;19928;-65
2023/06/10 13:21:12;;;;;;;;;;;;;;;;;;5031609;28;19972;-65
2023/06/10 13:23:38;;;;;;;;;;;;;;;;;;5030136;28;20286;-65
2023/06/10 13:26:04;;;;;;;;;;;;;;;;;;5002402;28;20283;-67
2023/06/10 13:28:31;;;;;;;;;;;;;;;;;;5028798;28;19932;-67
2023/06/10 13:30:57;;;;;;;;;;;;;;;;;;5012080;28;19925;-66
2023/06/10 13:33:22;;;;;;;;;;;;;;;;;;5024768;28;19925;-67
2023/06/10 13:35:48;;;;;;;;;;;;;;;;;;5027605;28;20023;-67
2023/06/10 13:38:14;;;;;;;;;;;;;;;;;;5009657;28;20016;-67
2023/06/10 13:40:40;;;;;;;;;;;;;;;;;;5022082;28;19921;-67
2023/06/10 13:43:06;;;;;;;;;;;;;;;;;;5015528;28;20248;-66
2023/06/10 13:45:32;;;;;;;;;;;;;;;;;;5024670;28;19929;-66
2023/06/10 13:47:58;;;;;;;;;;;;;;;;;;5004817;28;19925;-66
2023/06/10 13:50:24;;;;;;;;;;;;;;;;;;5024569;28;20020;-66
2023/06/10 13:52:50;;;;;;;;;;;;;;;;;;5027505;28;19929;-66
2023/06/10 13:55:17;;;;;;;;;;;;;;;;;;5024994;28;19925;-66
2023/06/10 13:57:43;;;;;;;;;;;;;;;;;;5022627;28;19921;-66
2023/06/10 14:00:10;;;;;;;;;;;;;;;;;;5023408;28;19929;-66
2023/06/10 14:02:36;;;;;;;;;;;;;;;;;;5032977;28;19921;-67
2023/06/10 14:05:02;;;;;;;;;;;;;;;;;;5029373;28;19921;-66
2023/06/10 14:07:28;;;;;;;;;;;;;;;;;;5032013;28;19934;-66
2023/06/10 14:09:54;;;;;;;;;;;;;;;;;;5022575;28;19921;-66
2023/06/10 14:12:19;;;;;;;;;;;;;;;;;;5027089;28;19925;-66
2023/06/10 14:14:45;;;;;;;;;;;;;;;;;;5024654;28;19925;-66
2023/06/10 14:17:11;;;;;;;;;;;;;;;;;;5026466;28;19929;-66
2023/06/10 14:19:37;;;;;;;;;;;;;;;;;;5030203;28;19932;-66
2023/06/10 14:22:03;;;;;;;;;;;;;;;;;;5027576;28;19948;-67
2023/06/10 14:24:29;;;;;;;;;;;;;;;;;;5027853;28;19932;-67
2023/06/10 14:26:56;;;;;;;;;;;;;;;;;;5031055;28;19924;-67
2023/06/10 14:29:22;;;;;;;;;;;;;;;;;;5033147;28;19932;-66
2023/06/10 14:31:48;;;;;;;;;;;;;;;;;;5003934;28;19925;-67
2023/06/10 14:34:14;;;;;;;;;;;;;;;;;;5026214;28;19953;-65
2023/06/10 14:36:40;;;;;;;;;;;;;;;;;;5033033;28;19925;-65
2023/06/10 14:39:06;;;;;;;;;;;;;;;;;;5032320;28;20267;-65
2023/06/10 14:41:32;;;;;;;;;;;;;;;;;;5033879;28;19971;-65
2023/06/10 14:43:58;;;;;;;;;;;;;;;;;;5016060;28;19926;-65
2023/06/10 14:46:24;;;;;;;;;;;;;;;;;;5033901;28;19921;-65
2023/06/10 14:48:51;;;;;;;;;;;;;;;;;;5030222;28;19929;-64
2023/06/10 14:51:16;;;;;;;;;;;;;;;;;;5019631;28;20302;-65
2023/06/10 14:53:42;;;;;;;;;;;;;;;;;;5027421;28;19940;-64
2023/06/10 14:56:08;;;;;;;;;;;;;;;;;;5014088;28;19921;-64
2023/06/10 14:58:34;;;;;;;;;;;;;;;;;;4996219;28;20940;-64
2023/06/10 15:01:00;;;;;;;;;;;;;;;;;;5014113;28;19925;-64
2023/06/10 15:03:26;;;;;;;;;;;;;;;;;;5013572;28;19922;-64
2023/06/10 15:05:52;;;;;;;;;;;;;;;;;;4995133;28;19925;-66
2023/06/10 15:08:18;;;;;;;;;;;;;;;;;;5026408;28;19944;-65
2023/06/10 15:10:43;;;;;;;;;;;;;;;;;;5014622;28;19998;-65
2023/06/10 15:13:09;;;;;;;;;;;;;;;;;;5013142;28;19983;-65
2023/06/10 15:15:35;;;;;;;;;;;;;;;;;;5033318;28;19967;-66
2023/06/10 15:18:02;;;;;;;;;;;;;;;;;;5006405;28;20431;-65
2023/06/10 15:20:27;;;;;;;;;;;;;;;;;;5013225;28;20322;-64
2023/06/10 15:22:53;;;;;;;;;;;;;;;;;;5008702;28;19922;-64
2023/06/10 15:25:20;;;;;;;;;;;;;;;;;;5022731;28;19972;-64
2023/06/10 15:27:46;;;;;;;;;;;;;;;;;;5027771;28;19929;-64
2023/06/10 15:30:11;;;;;;;;;;;;;;;;;;5033598;28;20358;-64
2023/06/10 15:32:37;;;;;;;;;;;;;;;;;;5033365;28;19921;-64
2023/06/10 15:35:04;;;;;;;;;;;;;;;;;;5033559;28;20347;-64
2023/06/10 15:37:29;;;;;;;;;;;;;;;;;;5031658;28;19925;-65
2023/06/10 15:39:55;;;;;;;;;;;;;;;;;;5032741;28;20386;-65
2023/06/10 15:42:21;;;;;;;;;;;;;;;;;;5032717;28;19943;-65
2023/06/10 15:44:47;;;;;;;;;;;;;;;;;;5032560;28;19924;-64
2023/06/10 15:47:13;;;;;;;;;;;;;;;;;;5014787;28;19928;-65
2023/06/10 15:49:39;;;;;;;;;;;;;;;;;;5032419;28;19971;-65
2023/06/10 15:52:05;;;;;;;;;;;;;;;;;;5031093;28;20398;-65
2023/06/10 15:54:31;;;;;;;;;;;;;;;;;;5029596;28;20446;-65
2023/06/10 15:56:57;;;;;;;;;;;;;;;;;;5032877;28;19928;-65
2023/06/10 15:59:23;;;;;;;;;;;;;;;;;;5032710;28;19927;-65
2023/06/10 16:01:48;;;;;;;;;;;;;;;;;;5018999;28;19987;-65
2023/06/10 16:04:14;;;;;;;;;;;;;;;;;;5032684;28;19947;-65
2023/06/10 16:06:40;;;;;;;;;;;;;;;;;;5030587;28;19932;-64
2023/06/10 16:09:06;;;;;;;;;;;;;;;;;;5014200;28;19925;-64
2023/06/10 16:11:32;;;;;;;;;;;;;;;;;;5032385;28;20377;-66
2023/06/10 16:13:58;;;;;;;;;;;;;;;;;;5032454;28;19925;-65
2023/06/10 16:16:24;;;;;;;;;;;;;;;;;;5025851;28;19928;-64
2023/06/10 16:18:50;;;;;;;;;;;;;;;;;;5023444;28;19926;-64
2023/06/10 16:21:16;;;;;;;;;;;;;;;;;;5012708;28;19922;-65
2023/06/10 16:23:42;;;;;;;;;;;;;;;;;;5012649;28;19926;-65
2023/06/10 16:26:08;;;;;;;;;;;;;;;;;;5012649;28;19922;-65
2023/06/10 16:28:34;;;;;;;;;;;;;;;;;;5016300;28;19925;-65
2023/06/10 16:31:00;;;;;;;;;;;;;;;;;;5030570;28;19980;-65
2023/06/10 16:33:26;;;;;;;;;;;;;;;;;;5030750;28;19925;-65
2023/06/10 16:35:52;;;;;;;;;;;;;;;;;;5032049;28;19925;-65
2023/06/10 16:38:17;;;;;;;;;;;;;;;;;;5032289;28;20374;-65